This is the latest recevied weather packets stored in our database for station/object N1SU-13. If no packets are shown the sender has not sent any weather packets the latest 10 day(s).
| Time | Temp. | Humidity | Pressure | Rain* | Wind** | Luminosity | Snow |
|---|---|---|---|---|---|---|---|
| 1787971989 | 17.78° C | 67% | 1013.6 hPa | - | - | - | - |
| 1787971418 | 18.33° C | 65% | 1013.5 hPa | - | - | - | - |
| 1787970747 | 18.89° C | 62% | 1013.5 hPa | - | - | - | - |
| 1787970138 | 18.89° C | 62% | 1013.5 hPa | - | - | - | - |
| 1787969529 | 18.89° C | 62% | 1013.4 hPa | - | - | - | - |
| 1787968857 | 19.44° C | 60% | 1013.4 hPa | - | - | - | - |
| 1787967540 | 19.44° C | 60% | 1013.4 hPa | - | - | - | - |
| 1787966907 | 20° C | 59% | 1013.4 hPa | - | - | - | - |
| 1787966290 | 20° C | 59% | 1013.3 hPa | - | - | - | - |
| 1787965677 | 19.44° C | 60% | 1013.5 hPa | - | - | - | - |
| 1787965035 | 20° C | 60% | 1013.5 hPa | - | - | - | - |
| 1787964340 | 20° C | 59% | 1013.5 hPa | - | - | - | - |
| 1787963690 | 20° C | 59% | 1013.6 hPa | - | - | - | - |
| 1787963039 | 20° C | 58% | 1013.6 hPa | - | - | - | - |
| 1787962460 | 20.56° C | 58% | 1013.8 hPa | - | - | - | - |
| 1787961860 | 20.56° C | 59% | 1013.8 hPa | - | - | - | - |
| 1787961217 | 20.56° C | 59% | 1013.9 hPa | - | - | - | - |
| 1787960597 | 21.11° C | 59% | 1014 hPa | - | - | - | - |
| 1787960041 | 20.56° C | 60% | 1014 hPa | - | - | - | - |
| 1787959382 | 20° C | 62% | 1014.2 hPa | - | - | - | - |
| 1787958754 | 20° C | 62% | 1014.3 hPa | - | - | - | - |
| 1787958077 | 20° C | 62% | 1014.5 hPa | - | - | - | - |
| 1787957402 | 20.56° C | 62% | 1014.6 hPa | - | - | - | - |
| 1787956817 | 20.56° C | 61% | 1014.8 hPa | - | - | - | - |
| 1787956258 | 20.56° C | 62% | 1014.7 hPa | - | - | - | - |
* Rain since midnight (hover to see other rain measurements)
** Current wind speed in m/s (hover to see current wind gust speed)